createdAt,value
2022-08-14T00:01:58.997Z,99971.08
2022-08-14T00:04:35.668Z,99973.55
2022-08-14T00:07:14.120Z,99975.08
2022-08-14T00:10:02.091Z,99970.41
2022-08-14T00:12:42.133Z,99973.81
2022-08-14T00:15:15.359Z,99970.77
2022-08-14T00:17:47.393Z,99965.02
2022-08-14T00:20:30.138Z,99964.73
2022-08-14T00:23:12.383Z,99960.48
2022-08-14T00:25:59.150Z,99957.06
2022-08-14T00:28:41.223Z,99953.23
2022-08-14T00:31:15.118Z,99952.19
2022-08-14T00:33:51.441Z,99952.25
2022-08-14T00:36:37.432Z,99955.86
2022-08-14T00:39:18.271Z,99951.42
2022-08-14T00:41:49.631Z,99945.52
2022-08-14T00:44:27.627Z,99948.50
2022-08-14T00:47:10.950Z,99948.04
2022-08-14T00:49:43.115Z,99942.96
2022-08-14T00:52:17.719Z,99945.19
2022-08-14T00:54:57.784Z,99941.40
2022-08-14T00:57:32.110Z,99938.52
2022-08-14T01:00:04.084Z,99932.09
2022-08-14T01:02:35.081Z,99931.77
2022-08-14T01:05:08.750Z,99930.25
2022-08-14T01:07:54.149Z,99932.59
2022-08-14T01:10:49.122Z,99930.29
2022-08-14T01:13:23.605Z,99935.56
2022-08-14T01:15:57.710Z,99936.45
2022-08-14T01:19:02.290Z,99934.55
2022-08-14T01:21:34.813Z,99937.67
2022-08-14T01:24:10.991Z,99933.33
2022-08-14T01:26:49.884Z,99932.77
2022-08-14T01:29:43.090Z,99933.55
2022-08-14T01:32:23.115Z,99934.74
2022-08-14T01:35:18.447Z,99930.95
2022-08-14T01:37:56.246Z,99932.95
2022-08-14T01:40:36.634Z,99937.16
2022-08-14T01:43:18.608Z,99933.50
2022-08-14T01:45:57.739Z,99934.02
2022-08-14T01:48:37.974Z,99934.31
2022-08-14T01:51:19.982Z,99934.65
2022-08-14T01:53:55.300Z,99931.80
2022-08-14T01:56:37.297Z,99931.48
2022-08-14T01:59:20.836Z,99936.70
2022-08-14T02:01:58.380Z,99936.12
2022-08-14T02:04:56.295Z,99935.70
2022-08-14T02:07:44.629Z,99938.61
2022-08-14T02:10:45.931Z,99941.14
2022-08-14T02:13:20.513Z,99943.16
2022-08-14T02:15:55.547Z,99946.77
2022-08-14T02:18:28.441Z,99948.60
2022-08-14T02:21:09.721Z,99946.65
2022-08-14T02:23:43.108Z,99948.35
2022-08-14T02:26:28.983Z,99953.17
2022-08-14T02:29:06.715Z,99951.22
2022-08-14T02:31:43.291Z,99951.26
2022-08-14T02:34:21.851Z,99951.66
2022-08-14T02:37:06.695Z,99948.63
2022-08-14T02:39:43.304Z,99951.10
2022-08-14T02:42:14.589Z,99952.46
2022-08-14T02:44:50.047Z,99955.22
2022-08-14T02:47:23.212Z,99955.71
2022-08-14T02:49:59.648Z,99958.08
2022-08-14T02:52:55.935Z,99957.23
2022-08-14T02:55:24.135Z,99958.52
2022-08-14T02:58:02.987Z,99958.26
2022-08-14T03:00:39.911Z,99954.12
2022-08-14T03:03:16.802Z,99957.10
2022-08-14T03:05:51.633Z,99954.14
2022-08-14T03:08:32.014Z,99952.27
2022-08-14T03:11:07.695Z,99953.08
2022-08-14T03:13:42.357Z,99954.58
2022-08-14T03:16:26.509Z,99959.73
2022-08-14T03:19:00.665Z,99954.63
2022-08-14T03:21:31.895Z,99955.30
2022-08-14T03:24:16.551Z,99964.41
2022-08-14T03:26:57.988Z,99961.89
2022-08-14T03:29:29.615Z,99964.25
2022-08-14T03:32:00.675Z,99961.96
2022-08-14T03:34:48.539Z,99963.52
2022-08-14T03:37:38.941Z,99965.35
2022-08-14T03:40:18.702Z,99966.77
2022-08-14T03:42:51.589Z,99967.85
2022-08-14T03:45:34.835Z,99969.02
2022-08-14T03:48:29.474Z,99966.72
2022-08-14T03:51:02.689Z,99960.92
2022-08-14T03:53:35.054Z,99966.27
2022-08-14T03:56:09.435Z,99965.89
2022-08-14T03:58:46.900Z,99967.89
2022-08-14T04:01:21.538Z,99967.52
2022-08-14T04:03:55.558Z,99967.15
2022-08-14T04:06:32.160Z,99964.83
2022-08-14T04:09:05.214Z,99965.36
2022-08-14T04:11:38.545Z,99961.77
2022-08-14T04:14:16.418Z,99960.86
2022-08-14T04:16:56.351Z,99961.72
2022-08-14T04:19:33.149Z,99959.59
2022-08-14T04:22:08.295Z,99957.65
2022-08-14T04:24:45.585Z,99957.19
2022-08-14T04:27:20.724Z,99954.69
2022-08-14T04:29:52.088Z,99957.05
2022-08-14T04:32:57.569Z,99959.59
2022-08-14T04:35:56.432Z,99962.04
2022-08-14T04:38:43.284Z,99959.80
2022-08-14T04:41:35.955Z,99959.75
2022-08-14T04:44:13.562Z,99955.81
2022-08-14T04:47:23.817Z,99949.70
2022-08-14T04:49:59.550Z,99947.76
2022-08-14T04:52:34.310Z,99949.15
2022-08-14T04:55:09.048Z,99951.20
2022-08-14T04:57:41.504Z,99948.85
2022-08-14T05:00:18.278Z,99949.65
2022-08-14T05:02:49.108Z,99947.71
2022-08-14T05:05:25.357Z,99943.64
2022-08-14T05:08:01.554Z,99935.02
2022-08-14T05:10:44.171Z,99932.04
2022-08-14T05:13:15.673Z,99938.29
2022-08-14T05:15:55.505Z,99939.35
2022-08-14T05:19:16.607Z,99947.83
2022-08-14T05:21:57.477Z,99948.50
2022-08-14T05:24:17.628Z,99946.77
2022-08-14T05:26:53.278Z,99947.29
2022-08-14T05:29:24.373Z,99945.91
2022-08-14T05:31:58.042Z,99947.50
2022-08-14T05:34:31.553Z,99951.17
2022-08-14T05:37:03.538Z,99953.38
2022-08-14T05:39:43.907Z,99952.55
2022-08-14T05:42:21.636Z,99953.53
2022-08-14T05:44:57.846Z,99949.88
2022-08-14T05:47:38.829Z,99950.34
2022-08-14T05:50:18.698Z,99947.91
2022-08-14T05:52:54.497Z,99949.67
2022-08-14T05:55:28.376Z,99944.22
2022-08-14T05:58:00.693Z,99943.61
2022-08-14T06:00:37.191Z,99942.13
2022-08-14T06:03:11.960Z,99949.12
2022-08-14T06:05:45.004Z,99945.14
2022-08-14T06:08:35.431Z,99942.94
2022-08-14T06:11:08.939Z,99939.65
2022-08-14T06:13:51.840Z,99941.20
2022-08-14T06:16:23.033Z,99947.73
2022-08-14T06:19:00.291Z,99944.88
2022-08-14T06:21:31.770Z,99944.98
2022-08-14T06:24:03.837Z,99941.92
2022-08-14T06:26:42.201Z,99939.92
2022-08-14T06:29:25.246Z,99939.27
2022-08-14T06:32:37.671Z,99940.11
2022-08-14T06:35:02.971Z,99942.05
2022-08-14T06:37:52.854Z,99939.11
2022-08-14T06:40:27.553Z,99936.75
2022-08-14T06:43:06.987Z,99940.90
2022-08-14T06:45:40.645Z,99945.44
2022-08-14T06:48:17.514Z,99950.23
2022-08-14T06:50:48.571Z,99949.78
2022-08-14T06:53:28.764Z,99958.56
2022-08-14T06:56:05.891Z,99957.08
2022-08-14T06:58:36.588Z,99956.22
2022-08-14T07:01:27.924Z,99949.44
2022-08-14T07:04:23.836Z,99945.75
2022-08-14T07:07:02.713Z,99942.88
2022-08-14T07:09:40.583Z,99937.17
2022-08-14T07:12:52.176Z,99939.00
2022-08-14T07:15:08.543Z,99940.45
2022-08-14T07:17:51.864Z,99930.03
2022-08-14T07:20:31.341Z,99928.63
2022-08-14T07:23:08.448Z,99924.65
2022-08-14T07:25:44.420Z,99928.29
2022-08-14T07:28:20.602Z,99936.66
2022-08-14T07:31:04.599Z,99946.59
2022-08-14T07:33:41.948Z,99949.88
2022-08-14T07:36:17.568Z,99950.73
2022-08-14T07:38:58.822Z,99954.11
2022-08-14T07:41:36.477Z,99956.81
2022-08-14T07:44:32.672Z,99952.56
2022-08-14T07:47:00.879Z,99955.34
2022-08-14T07:49:34.545Z,99957.09
2022-08-14T07:52:09.297Z,99963.40
2022-08-14T07:54:42.915Z,99969.59
2022-08-14T07:57:25.113Z,99972.07
2022-08-14T07:59:57.651Z,99971.08
2022-08-14T08:02:32.749Z,99974.58
2022-08-14T08:05:04.229Z,99968.11
2022-08-14T08:07:39.130Z,99955.47
2022-08-14T08:10:31.351Z,99953.96
2022-08-14T08:13:23.904Z,99948.61
2022-08-14T08:15:58.228Z,99944.20
2022-08-14T08:18:29.890Z,99950.44
2022-08-14T08:21:02.000Z,99946.84
2022-08-14T08:23:40.673Z,99940.88
2022-08-14T08:26:27.002Z,99930.56
2022-08-14T08:29:01.187Z,99930.35
2022-08-14T08:31:52.989Z,99933.74
2022-08-14T08:34:27.080Z,99945.27
2022-08-14T08:37:02.720Z,99946.56
2022-08-14T08:40:02.512Z,99939.71
2022-08-14T08:42:38.829Z,99928.94
2022-08-14T08:45:17.535Z,99915.09
2022-08-14T08:47:57.445Z,99904.48
2022-08-14T08:53:03.778Z,99897.50
2022-08-14T08:55:36.821Z,99900.71
2022-08-14T08:58:16.181Z,99898.31
2022-08-14T09:00:54.177Z,99892.35
2022-08-14T09:03:27.601Z,99881.83
2022-08-14T09:06:04.405Z,99877.77
2022-08-14T09:08:58.287Z,99876.11
2022-08-14T09:11:30.620Z,99882.41
2022-08-14T09:14:04.783Z,99881.92
2022-08-14T09:16:38.687Z,99873.52
2022-08-14T09:19:16.681Z,99872.80
2022-08-14T09:21:48.952Z,99879.65
2022-08-14T09:24:28.615Z,99877.06
2022-08-14T09:27:09.861Z,99876.99
2022-08-14T09:29:54.568Z,99877.27
2022-08-14T09:32:58.783Z,99871.23
2022-08-14T09:35:22.630Z,99862.34
2022-08-14T09:37:57.282Z,99867.14
2022-08-14T09:40:32.597Z,99864.18
2022-08-14T09:43:14.254Z,99847.73
2022-08-14T09:45:58.549Z,99835.61
2022-08-14T09:48:37.735Z,99828.15
2022-08-14T09:51:09.927Z,99823.00
2022-08-14T09:54:12.704Z,99820.65
2022-08-14T09:56:56.678Z,99818.47
2022-08-14T09:59:33.622Z,99825.81
2022-08-14T10:02:20.271Z,99827.66
2022-08-14T10:05:03.498Z,99825.11
2022-08-14T10:07:37.405Z,99809.38
2022-08-14T10:10:23.516Z,99803.99
2022-08-14T10:12:58.390Z,99802.45
2022-08-14T10:15:32.011Z,99801.00
2022-08-14T10:18:13.302Z,99797.20
2022-08-14T10:21:00.327Z,99791.66
2022-08-14T10:23:43.457Z,99790.48
2022-08-14T10:26:22.951Z,99800.23
2022-08-14T10:29:19.881Z,99800.64
2022-08-14T10:32:00.741Z,99802.88
2022-08-14T10:34:38.642Z,99797.33
2022-08-14T10:37:18.727Z,99803.70
2022-08-14T10:40:10.499Z,99805.95
2022-08-14T10:42:43.871Z,99804.11
2022-08-14T10:45:22.586Z,99806.39
2022-08-14T10:48:07.570Z,99811.46
2022-08-14T10:50:51.768Z,99807.24
2022-08-14T10:53:40.419Z,99806.00
2022-08-14T10:56:21.698Z,99807.88
2022-08-14T10:59:09.091Z,99805.17
2022-08-14T11:01:42.040Z,99804.20
2022-08-14T11:04:25.840Z,99802.31
2022-08-14T11:06:59.748Z,99801.69
2022-08-14T11:09:31.736Z,99804.08
2022-08-14T11:12:35.002Z,99807.14
2022-08-14T11:15:02.253Z,99805.76
2022-08-14T11:17:37.456Z,99804.58
2022-08-14T11:20:16.864Z,99801.80
2022-08-14T11:22:57.848Z,99800.51
2022-08-14T11:25:41.403Z,99795.71
2022-08-14T11:28:47.187Z,99788.16
2022-08-14T11:31:20.362Z,99783.45
2022-08-14T11:33:59.268Z,99773.86
2022-08-14T11:36:35.340Z,99777.15
2022-08-14T11:39:34.253Z,99769.89
2022-08-14T11:42:58.806Z,99767.63
2022-08-14T11:45:11.476Z,99766.58
2022-08-14T11:48:12.942Z,99762.51
2022-08-14T11:50:49.204Z,99758.18
2022-08-14T11:53:23.605Z,99749.46
2022-08-14T11:56:01.636Z,99741.66
2022-08-14T11:58:37.996Z,99738.59
2022-08-14T12:01:11.093Z,99739.40
2022-08-14T12:03:52.281Z,99735.51
2022-08-14T12:06:39.615Z,99732.52
2022-08-14T12:09:15.228Z,99728.54
2022-08-14T12:11:51.519Z,99727.81
2022-08-14T12:14:30.479Z,99723.13
2022-08-14T12:17:12.203Z,99726.61
2022-08-14T12:19:51.294Z,99723.70
2022-08-14T12:22:44.525Z,99729.40
2022-08-14T12:25:15.817Z,99739.23
2022-08-14T12:27:53.199Z,99732.93
2022-08-14T12:30:34.336Z,99740.16
2022-08-14T12:33:23.951Z,99736.30
2022-08-14T12:36:00.703Z,99727.34
2022-08-14T12:38:38.450Z,99723.73
2022-08-14T12:41:16.484Z,99725.48
2022-08-14T12:44:00.029Z,99722.02
2022-08-14T12:46:35.070Z,99719.78
2022-08-14T12:49:11.707Z,99725.81
2022-08-14T12:51:57.016Z,99721.73
2022-08-14T12:54:29.353Z,99720.26
2022-08-14T12:57:10.626Z,99723.46
2022-08-14T12:59:50.751Z,99727.77
2022-08-14T13:02:26.303Z,99725.95
2022-08-14T13:04:59.329Z,99726.46
2022-08-14T13:07:32.441Z,99724.73
2022-08-14T13:10:45.895Z,99722.98
2022-08-14T13:13:13.502Z,99727.93
2022-08-14T13:15:55.953Z,99735.31
2022-08-14T13:18:47.413Z,99734.02
2022-08-14T13:21:31.511Z,99733.08
2022-08-14T13:24:27.680Z,99730.87
2022-08-14T13:27:04.584Z,99736.81
2022-08-14T13:29:46.583Z,99742.16
2022-08-14T13:32:22.827Z,99740.88
2022-08-14T13:34:58.478Z,99743.93
2022-08-14T13:37:35.248Z,99747.75
2022-08-14T13:40:11.734Z,99747.39
2022-08-14T13:42:45.382Z,99750.27
2022-08-14T13:45:22.253Z,99754.79
2022-08-14T13:47:55.453Z,99761.71
2022-08-14T13:50:26.451Z,99762.20
2022-08-14T13:52:57.297Z,99760.86
2022-08-14T13:55:29.012Z,99760.65
2022-08-14T13:58:06.482Z,99757.21
2022-08-14T14:00:52.825Z,99746.14
2022-08-14T14:03:30.153Z,99746.34
2022-08-14T14:06:02.759Z,99751.99
2022-08-14T14:08:46.452Z,99749.45
2022-08-14T14:11:24.268Z,99746.71
2022-08-14T14:13:58.542Z,99743.37
2022-08-14T14:16:31.673Z,99742.64
2022-08-14T14:19:10.448Z,99735.94
2022-08-14T14:21:52.953Z,99736.98
2022-08-14T14:24:34.478Z,99734.53
2022-08-14T14:27:38.994Z,99734.50
2022-08-14T14:30:03.341Z,99735.26
2022-08-14T14:33:02.360Z,99737.00
2022-08-14T14:35:39.692Z,99737.77
2022-08-14T14:38:11.275Z,99738.89
2022-08-14T14:40:52.125Z,99737.18
2022-08-14T14:43:28.527Z,99742.92
2022-08-14T14:45:59.378Z,99742.62
2022-08-14T14:48:46.659Z,99744.81
2022-08-14T14:51:25.508Z,99742.51
2022-08-14T14:54:02.027Z,99743.37
2022-08-14T14:56:48.257Z,99735.80
2022-08-14T14:59:24.190Z,99725.95
2022-08-14T15:02:00.333Z,99722.77
2022-08-14T15:04:37.877Z,99718.25
2022-08-14T15:07:10.580Z,99708.27
2022-08-14T15:09:46.106Z,99705.35
2022-08-14T15:12:34.361Z,99711.14
2022-08-14T15:15:11.057Z,99711.56
2022-08-14T15:17:43.451Z,99705.73
2022-08-14T15:20:16.969Z,99709.13
2022-08-14T15:22:52.839Z,99713.31
2022-08-14T15:25:31.964Z,99713.01
2022-08-14T15:28:03.122Z,99712.11
2022-08-14T15:30:36.201Z,99708.19
2022-08-14T15:33:11.128Z,99698.70
2022-08-14T15:35:46.603Z,99704.68
2022-08-14T15:38:23.719Z,99702.27
2022-08-14T15:41:08.498Z,99708.20
2022-08-14T15:43:43.688Z,99717.25
2022-08-14T15:46:41.330Z,99724.30
2022-08-14T15:49:11.160Z,99720.83
2022-08-14T15:51:43.573Z,99716.69
2022-08-14T15:54:14.813Z,99723.09
2022-08-14T15:56:47.221Z,99725.05
2022-08-14T15:59:19.632Z,99733.91
2022-08-14T16:02:00.545Z,99738.48
2022-08-14T16:04:34.648Z,99739.41
2022-08-14T16:07:06.664Z,99733.46
2022-08-14T16:09:39.871Z,99735.35
2022-08-14T16:12:12.813Z,99731.30
2022-08-14T16:14:48.753Z,99725.44
2022-08-14T16:17:28.615Z,99723.12
2022-08-14T16:20:00.730Z,99721.19
2022-08-14T16:22:57.526Z,99719.88
2022-08-14T16:25:35.457Z,99719.57
2022-08-14T16:28:07.171Z,99718.42
2022-08-14T16:30:57.936Z,99719.65
2022-08-14T16:33:59.131Z,99713.87
2022-08-14T16:36:31.395Z,99708.30
2022-08-14T16:39:06.589Z,99706.59
2022-08-14T16:41:37.645Z,99709.46
2022-08-14T16:44:21.914Z,99711.49
2022-08-14T16:47:07.997Z,99709.23
2022-08-14T16:50:04.601Z,99712.83
2022-08-14T16:52:43.869Z,99714.95
2022-08-14T16:55:30.245Z,99711.73
2022-08-14T16:58:01.475Z,99712.64
2022-08-14T17:00:43.156Z,99712.98
2022-08-14T17:03:21.396Z,99706.91
2022-08-14T17:05:54.335Z,99711.91
2022-08-14T17:08:41.425Z,99720.28
2022-08-14T17:11:27.854Z,99729.44
2022-08-14T17:14:01.581Z,99733.56
2022-08-14T17:16:40.924Z,99739.63
2022-08-14T17:19:14.097Z,99738.66
2022-08-14T17:21:48.751Z,99747.84
2022-08-14T17:24:55.922Z,99745.73
2022-08-14T17:27:26.251Z,99749.88
2022-08-14T17:29:58.061Z,99750.58
2022-08-14T17:35:58.715Z,99751.60
2022-08-14T17:38:40.249Z,99745.76
2022-08-14T17:41:27.342Z,99740.60
2022-08-14T17:44:21.856Z,99742.41
2022-08-14T17:47:08.929Z,99750.78
2022-08-14T17:49:52.169Z,99747.95
2022-08-14T17:52:40.723Z,99746.27
2022-08-14T17:56:01.224Z,99735.37
2022-08-14T17:58:20.472Z,99733.83
2022-08-14T18:00:56.728Z,99748.30
2022-08-14T18:03:49.995Z,99751.10
2022-08-14T18:06:39.059Z,99754.36
2022-08-14T18:09:25.474Z,99755.52
2022-08-14T18:12:04.051Z,99761.73
2022-08-14T18:14:49.060Z,99767.25
2022-08-14T18:17:24.571Z,99774.68
2022-08-14T18:19:57.458Z,99791.08
2022-08-14T18:22:39.361Z,99805.17
2022-08-14T18:25:19.183Z,99815.41
2022-08-14T18:27:59.514Z,99821.36
2022-08-14T18:30:57.993Z,99818.13
2022-08-14T18:33:25.518Z,99817.04
2022-08-14T18:36:48.285Z,99816.02
2022-08-14T18:39:15.488Z,99819.66
2022-08-14T18:41:50.378Z,99829.48
2022-08-14T18:44:42.466Z,99840.63
2022-08-14T18:47:22.672Z,99844.64
2022-08-14T18:50:27.720Z,99847.22
2022-08-14T18:53:06.867Z,99849.21
2022-08-14T18:55:55.087Z,99857.25
2022-08-14T18:58:31.019Z,99874.29
2022-08-14T19:01:09.091Z,99874.61
2022-08-14T19:03:50.150Z,99877.52
2022-08-14T19:06:21.016Z,99872.46
2022-08-14T19:08:52.643Z,99866.83
2022-08-14T19:11:42.268Z,99863.77
2022-08-14T19:14:18.152Z,99872.13
2022-08-14T19:16:56.599Z,99879.23
2022-08-14T19:19:27.384Z,99889.99
2022-08-14T19:22:02.041Z,99919.73
2022-08-14T19:24:50.196Z,99928.13
2022-08-14T19:27:23.689Z,99906.58
2022-08-14T19:30:06.302Z,99901.90
2022-08-14T19:32:42.235Z,99904.59
2022-08-14T19:35:49.486Z,99899.48
2022-08-14T19:38:35.112Z,99867.30
2022-08-14T19:41:20.631Z,99842.98
2022-08-14T19:43:55.324Z,99828.17
2022-08-14T19:46:39.051Z,99822.95
2022-08-14T19:50:24.378Z,99838.09
2022-08-14T19:52:29.865Z,99840.26
2022-08-14T19:55:01.492Z,99831.63
2022-08-14T19:57:32.331Z,99822.18
2022-08-14T20:00:28.332Z,99817.20
2022-08-14T20:03:11.012Z,99808.23
2022-08-14T20:05:46.256Z,99804.89
2022-08-14T20:10:59.088Z,99800.63
2022-08-14T20:12:00.229Z,99794.45
2022-08-14T20:14:20.615Z,99788.81
2022-08-14T20:17:03.188Z,99786.88
2022-08-14T20:19:41.540Z,99782.73
2022-08-14T20:22:35.737Z,99782.65
2022-08-14T20:25:15.642Z,99778.58
2022-08-14T20:27:59.320Z,99772.28
2022-08-14T20:30:37.515Z,99774.66
2022-08-14T20:33:17.184Z,99771.58
2022-08-14T20:35:54.904Z,99766.47
2022-08-14T20:38:32.616Z,99757.27
2022-08-14T20:41:10.542Z,99755.52
2022-08-14T20:44:06.407Z,99752.17
2022-08-14T20:46:42.210Z,99744.63
2022-08-14T20:49:18.626Z,99740.02
2022-08-14T20:51:58.908Z,99736.20
2022-08-14T20:54:34.377Z,99735.64
2022-08-14T20:57:14.247Z,99733.45
2022-08-14T20:59:48.777Z,99729.63
2022-08-14T21:02:29.513Z,99724.80
2022-08-14T21:05:17.343Z,99725.66
2022-08-14T21:07:55.976Z,99725.12
2022-08-14T21:10:44.323Z,99729.13
2022-08-14T21:14:08.648Z,99737.30
2022-08-14T21:16:34.239Z,99743.83
2022-08-14T21:19:16.567Z,99750.63
2022-08-14T21:21:54.687Z,99755.59
2022-08-14T21:24:47.284Z,99761.52
2022-08-14T21:27:21.683Z,99769.48
2022-08-14T21:30:03.725Z,99778.34
2022-08-14T21:32:50.183Z,99790.02
2022-08-14T21:35:41.919Z,99794.21
2022-08-14T21:38:18.693Z,99797.61
2022-08-14T21:40:53.819Z,99795.30
2022-08-14T21:43:26.549Z,99804.06
2022-08-14T21:46:04.073Z,99802.73
2022-08-14T21:48:35.792Z,99809.05
2022-08-14T21:51:55.574Z,99811.16
2022-08-14T21:54:06.453Z,99813.05
2022-08-14T21:57:06.563Z,99813.78
2022-08-14T21:59:45.604Z,99817.53
2022-08-14T22:02:32.865Z,99823.53
2022-08-14T22:05:18.339Z,99822.71
2022-08-14T22:08:12.218Z,99822.39
2022-08-14T22:11:10.383Z,99825.86
2022-08-14T22:13:46.970Z,99823.65
2022-08-14T22:17:01.507Z,99822.36
2022-08-14T22:19:23.212Z,99829.69
2022-08-14T22:22:20.980Z,99837.37
2022-08-14T22:25:00.116Z,99841.17
2022-08-14T22:27:36.456Z,99837.89
2022-08-14T22:30:31.239Z,99840.95
2022-08-14T22:33:04.891Z,99843.20
2022-08-14T22:35:35.736Z,99844.15
2022-08-14T22:38:37.530Z,99843.84
2022-08-14T22:41:29.518Z,99841.04
2022-08-14T22:44:04.614Z,99847.93
2022-08-14T22:46:45.237Z,99851.17
2022-08-14T22:50:32.454Z,99849.54
2022-08-14T22:52:32.872Z,99847.14
2022-08-14T22:55:06.652Z,99845.71
2022-08-14T22:57:43.763Z,99841.23
2022-08-14T23:00:17.656Z,99842.11
2022-08-14T23:02:57.225Z,99842.16
2022-08-14T23:05:39.688Z,99840.91
2022-08-14T23:08:59.490Z,99844.66
2022-08-14T23:11:14.756Z,99848.92
2022-08-14T23:13:47.764Z,99845.96
2022-08-14T23:16:21.166Z,99844.04
2022-08-14T23:18:54.647Z,99838.17
2022-08-14T23:21:34.889Z,99835.95
2022-08-14T23:24:15.523Z,99832.31
2022-08-14T23:26:53.642Z,99827.58
2022-08-14T23:29:26.988Z,99823.52
2022-08-14T23:32:15.752Z,99822.94
2022-08-14T23:34:51.623Z,99827.33
2022-08-14T23:37:33.512Z,99828.70
2022-08-14T23:40:26.520Z,99826.33
2022-08-14T23:43:02.863Z,99824.36
2022-08-14T23:45:43.195Z,99821.52
2022-08-14T23:48:19.621Z,99819.76
2022-08-14T23:50:54.387Z,99822.02
2022-08-14T23:53:48.624Z,99821.44
2022-08-14T23:56:32.350Z,99824.09
2022-08-14T23:59:05.598Z,99816.48
